Time;durP1;ratioP1;P1;durP2;ratioP2;P2;SDS_P1;SDS_P2;PMS_P1;PMS_P2;Temp;Humidity;BMP_temperature;BMP_pressure;BME280_temperature;BME280_humidity;BME280_pressure;Samples;Min_cycle;Max_cycle;Signal;HPM_P1;HPM_P2
2021/09/25 00:01:42;;;;;;;6.60;4.80;;;16.50;99.90;;;;;;5094327;28;21267;-90
2021/09/25 00:04:08;;;;;;;6.53;5.22;;;16.40;99.90;;;;;;5094243;28;20162;-76
2021/09/25 00:06:34;;;;;;;7.63;5.70;;;16.30;99.90;;;;;;5094237;28;20166;-76
2021/09/25 00:09:00;;;;;;;6.30;5.47;;;16.20;99.90;;;;;;5095019;28;20749;-76
2021/09/25 00:11:28;;;;;;;6.63;4.50;;;16.10;99.90;;;;;;5093893;28;20243;-76
2021/09/25 00:13:54;;;;;;;8.32;5.18;;;16.30;99.90;;;;;;5093963;28;20525;-92
2021/09/25 00:16:20;;;;;;;7.05;5.15;;;16.30;99.90;;;;;;5093706;28;20275;-90
2021/09/25 00:18:46;;;;;;;7.63;5.32;;;16.30;99.90;;;;;;5094086;28;20634;-76
2021/09/25 00:21:11;;;;;;;6.38;5.57;;;16.30;99.90;;;;;;5094258;28;20172;-76
2021/09/25 00:23:37;;;;;;;10.43;5.38;;;16.30;99.90;;;;;;5093910;28;20501;-76
2021/09/25 00:26:03;;;;;;;5.82;4.90;;;16.40;99.90;;;;;;5093420;28;20173;-77
2021/09/25 00:28:28;;;;;;;7.50;5.57;;;16.30;99.90;;;;;;5093650;28;20185;-76
2021/09/25 00:30:54;;;;;;;11.13;5.82;;;16.40;99.90;;;;;;5093759;28;20263;-77
2021/09/25 00:33:19;;;;;;;8.20;5.43;;;16.30;99.90;;;;;;5093492;28;20623;-76
2021/09/25 00:35:45;;;;;;;6.00;5.45;;;16.30;99.90;;;;;;5093611;28;20613;-76
2021/09/25 00:38:10;;;;;;;7.00;5.88;;;16.30;99.90;;;;;;5093422;28;20188;-92
2021/09/25 00:40:36;;;;;;;6.25;5.38;;;16.20;99.90;;;;;;5093603;28;20172;-76
2021/09/25 00:43:02;;;;;;;9.15;6.10;;;16.10;99.90;;;;;;5093669;28;20170;-79
2021/09/25 00:45:28;;;;;;;8.70;6.18;;;16.00;99.90;;;;;;5093617;28;20647;-76
2021/09/25 00:47:54;;;;;;;11.60;5.70;;;16.20;99.90;;;;;;5093223;28;20645;-76
2021/09/25 00:50:20;;;;;;;6.88;6.03;;;16.10;99.90;;;;;;5093802;28;20205;-91
2021/09/25 00:52:46;;;;;;;11.20;6.20;;;15.90;99.90;;;;;;5093456;28;20255;-76
2021/09/25 00:55:12;;;;;;;6.43;5.80;;;15.90;99.90;;;;;;5093188;28;20166;-76
2021/09/25 00:57:39;;;;;;;8.50;6.60;;;16.10;99.90;;;;;;5093081;28;20158;-76
2021/09/25 01:00:07;;;;;;;10.63;6.75;;;16.00;99.90;;;;;;5093635;28;20166;-77
2021/09/25 01:02:35;;;;;;;10.15;7.90;;;16.10;99.90;;;;;;5093107;28;20166;-77
2021/09/25 01:05:01;;;;;;;9.23;6.50;;;16.20;99.90;;;;;;5093063;28;20651;-76
2021/09/25 01:07:27;;;;;;;8.27;6.18;;;16.40;99.90;;;;;;5092955;28;20166;-82
2021/09/25 01:09:54;;;;;;;8.95;7.13;;;16.30;99.90;;;;;;5093122;28;20214;-76
2021/09/25 01:12:20;;;;;;;12.43;6.78;;;16.20;99.90;;;;;;5093051;28;20184;-76
2021/09/25 01:14:45;;;;;;;10.13;6.82;;;16.10;99.90;;;;;;5092850;28;20162;-92
2021/09/25 01:17:12;;;;;;;12.05;6.95;;;16.00;99.90;;;;;;5092890;28;20169;-92
2021/09/25 01:19:42;;;;;;;11.18;6.55;;;16.10;99.90;;;;;;5092855;28;20186;-76
2021/09/25 01:22:08;;;;;;;11.02;7.15;;;16.10;99.90;;;;;;5093099;28;20514;-76
2021/09/25 01:24:34;;;;;;;10.45;7.53;;;16.20;99.90;;;;;;5093098;28;20556;-77
2021/09/25 01:27:00;;;;;;;7.68;6.72;;;16.30;99.90;;;;;;5092995;28;20246;-77
2021/09/25 01:29:26;;;;;;;8.23;6.35;;;16.10;99.90;;;;;;5092575;28;20554;-76
2021/09/25 01:31:52;;;;;;;17.52;7.03;;;16.00;99.90;;;;;;5093075;28;20534;-91
2021/09/25 01:34:18;;;;;;;9.20;6.40;;;16.10;99.90;;;;;;5092632;28;20165;-76
2021/09/25 01:36:44;;;;;;;11.60;7.10;;;16.10;99.90;;;;;;5092186;28;20170;-76
2021/09/25 01:39:10;;;;;;;8.27;6.93;;;16.10;99.90;;;;;;5094920;28;20181;-92
2021/09/25 01:41:35;;;;;;;8.65;6.65;;;16.10;99.90;;;;;;5095935;28;20664;-90
2021/09/25 01:44:02;;;;;;;14.30;8.52;;;16.20;99.90;;;;;;5096823;28;20550;-83
2021/09/25 01:46:27;;;;;;;17.52;7.45;;;16.20;99.90;;;;;;5096876;28;20154;-77
2021/09/25 01:48:53;;;;;;;10.07;7.47;;;16.30;99.90;;;;;;5096325;28;20182;-76
2021/09/25 01:51:19;;;;;;;11.02;7.55;;;16.30;99.90;;;;;;5096869;28;20253;-76
2021/09/25 01:53:44;;;;;;;13.55;8.10;;;16.30;99.90;;;;;;5096352;28;20188;-92
2021/09/25 01:56:13;;;;;;;13.02;8.88;;;16.40;99.90;;;;;;5096313;28;20185;-76
2021/09/25 01:58:39;;;;;;;12.13;8.82;;;16.50;99.90;;;;;;5096264;28;20186;-76
2021/09/25 02:01:07;;;;;;;13.65;8.38;;;16.60;99.90;;;;;;5096662;28;20158;-80
2021/09/25 02:03:35;;;;;;;15.20;8.15;;;16.30;99.90;;;;;;5096563;28;20526;-79
2021/09/25 02:06:06;;;;;;;10.93;7.45;;;16.40;99.90;;;;;;5095237;28;20189;-76
2021/09/25 02:08:34;;;;;;;10.45;8.65;;;16.40;99.90;;;;;;5096269;28;20204;-78
2021/09/25 02:10:59;;;;;;;13.02;8.00;;;16.50;99.90;;;;;;5096285;28;20662;-76
2021/09/25 02:13:26;;;;;;;13.23;8.20;;;16.40;99.90;;;;;;5096279;28;20173;-77
2021/09/25 02:15:52;;;;;;;12.30;8.30;;;16.40;99.90;;;;;;5096812;28;20170;-80
2021/09/25 02:18:18;;;;;;;14.02;8.02;;;16.50;99.90;;;;;;5095103;28;20181;-76
2021/09/25 02:20:44;;;;;;;13.90;8.65;;;16.50;99.90;;;;;;5096591;28;20227;-77
2021/09/25 02:23:10;;;;;;;14.23;9.25;;;16.40;99.90;;;;;;5096173;28;20166;-76
2021/09/25 02:25:35;;;;;;;15.23;9.45;;;16.40;99.90;;;;;;5095334;28;20264;-76
2021/09/25 02:28:01;;;;;;;14.02;9.82;;;16.40;99.90;;;;;;5096324;28;20185;-91
2021/09/25 02:30:27;;;;;;;15.75;10.35;;;16.40;99.90;;;;;;5096538;28;20239;-81
2021/09/25 02:32:53;;;;;;;12.18;9.70;;;16.40;99.90;;;;;;5096225;28;20660;-78
2021/09/25 02:35:19;;;;;;;15.90;10.13;;;16.20;99.90;;;;;;5096117;28;20242;-77
2021/09/25 02:37:47;;;;;;;23.67;10.77;;;16.40;99.90;;;;;;5095973;28;20161;-76
2021/09/25 02:40:13;;;;;;;16.52;10.13;;;16.30;99.90;;;;;;5095951;28;20510;-76
2021/09/25 02:42:38;;;;;;;13.57;9.80;;;16.30;99.90;;;;;;5095960;28;20581;-76
2021/09/25 02:45:05;;;;;;;18.42;11.52;;;16.20;99.90;;;;;;5094472;28;20197;-76
2021/09/25 02:47:30;;;;;;;18.23;10.05;;;16.10;99.90;;;;;;5095724;28;20264;-76
2021/09/25 02:49:56;;;;;;;17.65;11.18;;;16.10;99.90;;;;;;5095471;28;20280;-76
2021/09/25 02:52:22;;;;;;;20.98;10.82;;;16.20;99.90;;;;;;5094951;28;20703;-76
2021/09/25 02:54:47;;;;;;;15.82;10.63;;;16.40;99.90;;;;;;5093859;28;20176;-81
2021/09/25 02:57:13;;;;;;;15.95;10.43;;;16.40;99.90;;;;;;5093916;28;20165;-76
2021/09/25 02:59:38;;;;;;;20.15;11.50;;;16.40;99.90;;;;;;5093679;28;20217;-76
2021/09/25 03:02:04;;;;;;;15.52;11.13;;;16.40;99.90;;;;;;5095069;28;20162;-77
2021/09/25 03:04:30;;;;;;;20.80;12.13;;;16.20;99.90;;;;;;5094942;28;20174;-76
2021/09/25 03:06:55;;;;;;;12.82;10.77;;;16.30;99.90;;;;;;5095114;28;20216;-77
2021/09/25 03:09:22;;;;;;;20.73;11.70;;;16.20;99.90;;;;;;5093727;28;20217;-91
2021/09/25 03:11:49;;;;;;;16.42;11.95;;;16.30;99.90;;;;;;5095328;28;20265;-76
2021/09/25 03:14:15;;;;;;;19.90;12.05;;;16.40;99.90;;;;;;5095505;28;20188;-76
2021/09/25 03:16:41;;;;;;;16.92;11.43;;;16.30;99.90;;;;;;5095309;28;20166;-76
2021/09/25 03:19:06;;;;;;;18.27;11.80;;;16.40;99.90;;;;;;5095017;28;20265;-75
2021/09/25 03:21:32;;;;;;;19.33;11.60;;;16.40;99.90;;;;;;5095070;28;20173;-76
2021/09/25 03:23:58;;;;;;;17.05;12.35;;;16.30;99.90;;;;;;5095089;28;20626;-76
2021/09/25 03:26:23;;;;;;;21.25;13.45;;;16.40;99.90;;;;;;5095211;28;20162;-77
2021/09/25 03:28:49;;;;;;;16.88;12.02;;;16.40;99.90;;;;;;5095203;28;20178;-92
2021/09/25 03:31:15;;;;;;;21.48;12.55;;;16.50;99.90;;;;;;5094862;28;20528;-76
2021/09/25 03:33:40;;;;;;;19.10;12.55;;;16.40;99.90;;;;;;5094431;28;20166;-76
2021/09/25 03:36:06;;;;;;;21.95;12.85;;;16.20;99.90;;;;;;5094900;28;20524;-76
2021/09/25 03:38:31;;;;;;;16.80;11.40;;;16.10;99.90;;;;;;5094844;28;20235;-76
2021/09/25 03:40:58;;;;;;;17.15;12.23;;;16.00;99.90;;;;;;5094504;28;20170;-77
2021/09/25 03:43:24;;;;;;;20.40;10.73;;;15.90;99.90;;;;;;5094831;28;20618;-79
2021/09/25 03:45:49;;;;;;;19.45;11.98;;;16.00;99.90;;;;;;5094467;28;20170;-91
2021/09/25 03:48:15;;;;;;;21.33;12.55;;;16.00;99.90;;;;;;5094349;28;20220;-76
2021/09/25 03:50:41;;;;;;;17.00;12.18;;;15.90;99.90;;;;;;5094613;28;20255;-76
2021/09/25 03:53:07;;;;;;;17.00;11.38;;;15.90;99.90;;;;;;5093961;28;20168;-77
2021/09/25 03:55:32;;;;;;;20.45;12.13;;;15.80;99.90;;;;;;5094335;28;20257;-76
2021/09/25 03:57:58;;;;;;;22.13;12.85;;;15.80;99.90;;;;;;5093948;28;20216;-76
2021/09/25 04:00:25;;;;;;;20.45;12.32;;;15.80;99.90;;;;;;5094057;28;20209;-76
2021/09/25 04:02:52;;;;;;;17.80;11.38;;;15.80;99.90;;;;;;5093733;28;20206;-76
2021/09/25 04:05:18;;;;;;;19.42;12.60;;;15.90;99.90;;;;;;5094057;28;20166;-76
2021/09/25 04:07:44;;;;;;;18.50;12.52;;;15.80;99.90;;;;;;5094318;28;20250;-76
2021/09/25 04:10:11;;;;;;;17.23;11.35;;;15.70;99.90;;;;;;5094214;28;20208;-77
2021/09/25 04:12:37;;;;;;;15.80;11.82;;;15.80;99.90;;;;;;5092988;28;20178;-76
2021/09/25 04:15:04;;;;;;;19.98;11.10;;;15.50;99.90;;;;;;5093107;28;20246;-88
2021/09/25 04:17:29;;;;;;;16.95;11.75;;;15.60;99.90;;;;;;5094392;28;20165;-77
2021/09/25 04:19:55;;;;;;;20.73;11.43;;;15.80;99.90;;;;;;5093642;28;20549;-76
2021/09/25 04:22:21;;;;;;;18.85;11.90;;;15.80;99.90;;;;;;5093964;28;20658;-92
2021/09/25 04:24:46;;;;;;;24.35;12.70;;;15.90;99.90;;;;;;5093791;28;20173;-76
2021/09/25 04:27:12;;;;;;;20.20;11.77;;;15.80;99.90;;;;;;5094268;28;20169;-92
2021/09/25 04:29:38;;;;;;;17.50;11.70;;;15.80;99.90;;;;;;5093396;28;20584;-76
2021/09/25 04:32:04;;;;;;;20.48;12.55;;;15.90;99.90;;;;;;5093350;28;20181;-89
2021/09/25 04:34:29;;;;;;;20.45;12.18;;;15.90;99.90;;;;;;5094136;28;20161;-76
2021/09/25 04:36:56;;;;;;;19.30;12.05;;;16.00;99.90;;;;;;5093546;28;20162;-76
2021/09/25 04:39:22;;;;;;;18.33;12.45;;;15.90;99.90;;;;;;5094085;28;20182;-79
2021/09/25 04:41:48;;;;;;;25.67;13.93;;;16.00;99.90;;;;;;5093563;28;20238;-76
2021/09/25 04:44:16;;;;;;;21.45;13.32;;;15.90;99.90;;;;;;5094005;28;20170;-78
2021/09/25 04:46:42;;;;;;;23.80;12.95;;;15.80;99.90;;;;;;5093863;28;20165;-91
2021/09/25 04:49:08;;;;;;;26.02;12.50;;;15.60;99.90;;;;;;5092234;28;20654;-82
2021/09/25 04:51:34;;;;;;;27.65;15.70;;;15.50;99.90;;;;;;5093677;28;20173;-76
2021/09/25 04:53:59;;;;;;;24.08;12.60;;;15.50;99.90;;;;;;5093918;28;20165;-76
2021/09/25 04:56:25;;;;;;;21.48;12.10;;;15.60;99.90;;;;;;5093140;28;20172;-76
2021/09/25 04:58:50;;;;;;;24.52;13.15;;;15.50;99.90;;;;;;5092821;28;20229;-76
2021/09/25 05:01:16;;;;;;;20.83;11.85;;;15.50;99.90;;;;;;5093000;28;20162;-76
2021/09/25 05:03:42;;;;;;;23.10;12.30;;;15.60;99.90;;;;;;5093206;28;20166;-76
2021/09/25 05:06:08;;;;;;;17.95;12.45;;;15.50;99.90;;;;;;5093199;28;20161;-76
2021/09/25 05:08:34;;;;;;;20.17;11.77;;;15.50;99.90;;;;;;5093435;28;20189;-90
2021/09/25 05:10:59;;;;;;;22.13;12.55;;;15.50;99.90;;;;;;5092996;28;20213;-77
2021/09/25 05:13:26;;;;;;;24.83;12.52;;;15.50;99.90;;;;;;5091365;28;20173;-78
2021/09/25 05:15:51;;;;;;;21.63;12.95;;;15.70;99.90;;;;;;5092803;28;20689;-77
2021/09/25 05:18:17;;;;;;;25.67;13.23;;;15.80;99.90;;;;;;5093133;28;20269;-76
2021/09/25 05:20:43;;;;;;;20.30;13.25;;;15.80;99.90;;;;;;5092995;28;20630;-76
2021/09/25 05:23:09;;;;;;;23.08;13.23;;;15.70;99.90;;;;;;5093042;28;20158;-76
2021/09/25 05:25:35;;;;;;;24.27;13.00;;;15.70;99.90;;;;;;5093118;28;20174;-76
2021/09/25 05:28:00;;;;;;;19.52;11.88;;;15.80;99.90;;;;;;5093014;28;20204;-76
2021/09/25 05:30:26;;;;;;;21.70;11.73;;;15.70;99.90;;;;;;5093058;28;20611;-91
2021/09/25 05:32:52;;;;;;;21.83;12.90;;;15.60;99.90;;;;;;5093057;28;20166;-77
2021/09/25 05:35:17;;;;;;;22.25;13.82;;;15.60;99.90;;;;;;5093269;28;20670;-76
2021/09/25 05:37:43;;;;;;;24.33;12.52;;;15.60;99.90;;;;;;5092851;28;20592;-76
2021/09/25 05:40:09;;;;;;;21.70;12.90;;;15.70;99.90;;;;;;5092969;28;20170;-76
2021/09/25 05:42:35;;;;;;;20.42;12.50;;;15.50;99.90;;;;;;5093052;28;20198;-76
2021/09/25 05:45:02;;;;;;;18.92;12.52;;;15.60;99.90;;;;;;5092962;28;20193;-92
2021/09/25 05:47:27;;;;;;;30.75;12.35;;;15.40;99.90;;;;;;5092892;28;20162;-76
2021/09/25 05:49:53;;;;;;;21.88;12.75;;;15.50;99.90;;;;;;5092746;28;20205;-86
2021/09/25 05:52:19;;;;;;;22.42;13.32;;;15.40;99.90;;;;;;5091224;28;20518;-76
2021/09/25 05:54:45;;;;;;;20.95;13.35;;;15.50;99.90;;;;;;5092632;28;20522;-76
2021/09/25 05:57:12;;;;;;;22.70;12.70;;;15.50;99.90;;;;;;5092724;28;20162;-76
2021/09/25 05:59:37;;;;;;;17.98;12.43;;;15.50;99.90;;;;;;5092528;28;20327;-76
2021/09/25 06:02:04;;;;;;;19.50;11.98;;;15.20;99.90;;;;;;5092474;28;20213;-76
2021/09/25 06:04:30;;;;;;;21.45;11.98;;;15.20;99.90;;;;;;5093073;28;20174;-90
2021/09/25 06:06:56;;;;;;;14.57;11.23;;;15.20;99.90;;;;;;5092662;28;20162;-76
2021/09/25 06:09:22;;;;;;;15.90;11.80;;;15.10;99.90;;;;;;5092448;28;20204;-91
2021/09/25 06:11:51;;;;;;;22.63;13.10;;;15.30;99.90;;;;;;5092230;28;20553;-76
2021/09/25 06:14:17;;;;;;;24.02;12.98;;;15.40;99.90;;;;;;5092197;28;20222;-77
2021/09/25 06:16:42;;;;;;;18.73;12.23;;;15.50;99.90;;;;;;5092150;28;20170;-77
2021/09/25 06:19:08;;;;;;;20.45;11.88;;;15.50;99.90;;;;;;5090694;28;20216;-76
2021/09/25 06:21:34;;;;;;;19.17;12.85;;;15.60;99.90;;;;;;5092556;28;20162;-76
2021/09/25 06:23:59;;;;;;;20.20;13.05;;;15.40;99.90;;;;;;5092400;28;20185;-76
2021/09/25 06:26:25;;;;;;;21.50;12.15;;;15.50;99.90;;;;;;5095766;28;20574;-77
2021/09/25 06:28:50;;;;;;;18.23;12.02;;;15.50;99.90;;;;;;5095701;28;20185;-77
2021/09/25 06:31:20;;;;;;;14.00;10.93;;;15.70;99.90;;;;;;5095563;28;20205;-78
2021/09/25 06:33:45;;;;;;;23.00;12.63;;;15.90;99.90;;;;;;5095837;28;20176;-78
2021/09/25 06:36:12;;;;;;;25.83;12.88;;;15.90;99.90;;;;;;5095484;28;20176;-78
2021/09/25 06:38:38;;;;;;;18.48;12.68;;;15.90;99.90;;;;;;5095343;28;20269;-78
2021/09/25 06:41:04;;;;;;;16.25;11.52;;;15.90;99.90;;;;;;5095472;28;20170;-76
2021/09/25 06:43:30;;;;;;;25.58;12.95;;;15.60;99.90;;;;;;5096119;28;20174;-92
2021/09/25 06:45:55;;;;;;;28.17;11.80;;;15.80;99.90;;;;;;5095750;28;20165;-79
2021/09/25 06:48:21;;;;;;;19.35;12.35;;;15.80;99.90;;;;;;5095506;28;20645;-76
2021/09/25 06:50:48;;;;;;;22.33;12.55;;;15.70;99.90;;;;;;5099244;28;20208;-82
2021/09/25 06:53:13;;;;;;;14.43;11.13;;;15.60;99.90;;;;;;5099191;28;20236;-76
2021/09/25 06:55:39;;;;;;;18.92;11.88;;;15.70;99.90;;;;;;5096539;28;20626;-76
2021/09/25 06:58:06;;;;;;;18.75;12.15;;;15.70;99.90;;;;;;5097459;28;20587;-77
2021/09/25 07:00:32;;;;;;;19.80;11.30;;;15.70;99.90;;;;;;5096103;28;20185;-88
2021/09/25 07:02:58;;;;;;;21.05;12.70;;;15.80;99.90;;;;;;5097266;28;20158;-75
2021/09/25 07:05:24;;;;;;;17.35;11.93;;;16.10;99.90;;;;;;5097054;28;20249;-76
2021/09/25 07:07:53;;;;;;;18.67;12.23;;;16.00;99.90;;;;;;5096268;28;20177;-89
2021/09/25 07:10:19;;;;;;;26.23;11.95;;;16.20;99.90;;;;;;5095046;28;20281;-82
2021/09/25 07:12:44;;;;;;;15.73;11.10;;;16.30;99.90;;;;;;5095270;28;20281;-76
2021/09/25 07:15:12;;;;;;;20.58;12.43;;;16.40;99.90;;;;;;5094720;28;20177;-76
2021/09/25 07:17:38;;;;;;;16.33;12.05;;;16.50;99.90;;;;;;5095140;28;20162;-76
2021/09/25 07:20:06;;;;;;;14.60;11.00;;;16.60;99.90;;;;;;5094822;28;20181;-75
2021/09/25 07:22:32;;;;;;;16.27;11.30;;;16.70;99.90;;;;;;5094733;28;20169;-76
2021/09/25 07:24:58;;;;;;;15.40;11.82;;;16.60;99.90;;;;;;5094993;28;20162;-76
2021/09/25 07:27:24;;;;;;;16.88;12.25;;;16.60;99.90;;;;;;5095339;28;20578;-75
2021/09/25 07:29:50;;;;;;;20.40;10.82;;;16.70;99.90;;;;;;5094937;28;20258;-93
2021/09/25 07:32:17;;;;;;;18.90;11.63;;;16.70;99.90;;;;;;5093233;28;20216;-79
2021/09/25 07:34:42;;;;;;;15.18;10.60;;;16.70;99.90;;;;;;5093270;28;20634;-80
2021/09/25 07:37:08;;;;;;;19.50;12.57;;;16.90;99.90;;;;;;5093475;28;20207;-81
2021/09/25 07:39:34;;;;;;;16.38;10.68;;;17.20;99.90;;;;;;5093556;28;20666;-80
2021/09/25 07:42:01;;;;;;;15.88;11.18;;;17.20;99.90;;;;;;5093056;28;20211;-79
2021/09/25 07:44:27;;;;;;;19.45;11.50;;;17.10;99.90;;;;;;5092535;28;20530;-81
2021/09/25 07:46:52;;;;;;;12.80;11.02;;;17.10;99.90;;;;;;5093281;28;20169;-88
2021/09/25 07:49:18;;;;;;;24.80;11.18;;;17.20;99.90;;;;;;5094650;28;20194;-82
2021/09/25 07:51:44;;;;;;;15.40;10.25;;;17.30;99.90;;;;;;5095155;28;20578;-81
2021/09/25 07:54:10;;;;;;;14.77;10.88;;;17.40;99.90;;;;;;5094034;28;20181;-79
2021/09/25 07:56:35;;;;;;;14.63;10.23;;;17.60;99.90;;;;;;5094462;28;20161;-80
2021/09/25 07:59:01;;;;;;;12.50;10.18;;;17.50;99.90;;;;;;5094235;28;20530;-87
2021/09/25 08:01:27;;;;;;;15.48;10.57;;;17.50;99.90;;;;;;5093572;28;20177;-78
2021/09/25 08:03:52;;;;;;;19.40;11.45;;;17.60;99.90;;;;;;5095813;28;20162;-82
2021/09/25 08:06:19;;;;;;;20.55;11.40;;;17.70;99.90;;;;;;5094672;28;20170;-80
2021/09/25 08:08:45;;;;;;;13.75;9.55;;;17.70;99.90;;;;;;5094056;28;20181;-83
2021/09/25 08:11:11;;;;;;;15.10;10.38;;;17.80;99.90;;;;;;5087062;28;20241;-94
2021/09/25 08:13:36;;;;;;;11.73;9.82;;;17.90;99.90;;;;;;5096269;28;20640;-84
2021/09/25 08:16:02;;;;;;;10.48;9.38;;;17.90;99.90;;;;;;5096861;28;20177;-88
2021/09/25 08:18:28;;;;;;;15.95;10.32;;;18.00;99.90;;;;;;5097367;28;20212;-81
2021/09/25 08:20:54;;;;;;;10.27;9.20;;;18.10;99.90;;;;;;5096091;28;20196;-84
2021/09/25 08:23:20;;;;;;;16.25;10.32;;;18.10;99.90;;;;;;5098215;28;20264;-87
2021/09/25 08:25:46;;;;;;;12.48;9.55;;;18.40;99.90;;;;;;5098770;28;20185;-85
2021/09/25 08:28:12;;;;;;;11.55;9.18;;;18.50;99.90;;;;;;5099449;28;20193;-82
2021/09/25 08:30:37;;;;;;;12.27;9.35;;;18.70;99.90;;;;;;5104035;28;20264;-82
2021/09/25 08:33:03;;;;;;;11.55;8.80;;;18.80;99.90;;;;;;5101625;28;20189;-80
2021/09/25 08:35:29;;;;;;;10.38;8.50;;;18.90;99.90;;;;;;5096186;28;20245;-83
2021/09/25 08:37:55;;;;;;;13.05;9.27;;;18.80;99.90;;;;;;5094144;28;20548;-79
2021/09/25 08:40:22;;;;;;;12.27;9.15;;;18.80;99.90;;;;;;5092692;28;20169;-81
2021/09/25 08:42:52;;;;;;;9.55;8.27;;;19.00;99.90;;;;;;5089732;28;20181;-81
2021/09/25 08:45:18;;;;;;;11.18;9.32;;;18.90;99.90;;;;;;5093741;28;20677;-77
2021/09/25 08:47:48;;;;;;;18.02;8.00;;;18.80;99.90;;;;;;5103503;28;20165;-76
2021/09/25 08:50:17;;;;;;;9.75;8.70;;;18.90;99.90;;;;;;5095861;28;20229;-89
2021/09/25 08:52:46;;;;;;;9.77;8.77;;;18.90;99.90;;;;;;5087733;28;20239;-80
2021/09/25 08:55:13;;;;;;;11.23;8.48;;;18.90;99.90;;;;;;5096743;28;20187;-79
2021/09/25 08:57:40;;;;;;;10.73;9.20;;;19.00;99.90;;;;;;5091949;28;20197;-79
2021/09/25 09:00:47;;;;;;;10.48;9.10;;;19.00;99.90;;;;;;5099658;28;20192;-81
2021/09/25 09:03:47;;;;;;;10.18;8.73;;;19.20;99.90;;;;;;5096485;28;20177;-80
2021/09/25 09:06:35;;;;;;;12.75;9.43;;;19.40;99.90;;;;;;5116765;28;20214;-80
2021/09/25 09:09:10;;;;;;;16.30;9.98;;;19.50;99.90;;;;;;5100099;28;20224;-81
2021/09/25 09:11:46;;;;;;;9.88;8.88;;;19.50;99.90;;;;;;5115818;28;20209;-88
2021/09/25 09:14:28;;;;;;;12.15;8.48;;;19.50;99.90;;;;;;5105481;28;20185;-85
2021/09/25 09:16:56;;;;;;;15.80;8.70;;;19.60;99.90;;;;;;5079164;28;20194;-91
2021/09/25 09:19:21;;;;;;;10.80;9.50;;;19.70;99.90;;;;;;5081395;28;20276;-88
2021/09/25 09:21:49;;;;;;;13.48;9.02;;;19.70;99.90;;;;;;5098457;28;20258;-77
2021/09/25 09:24:16;;;;;;;11.55;8.65;;;19.60;99.90;;;;;;5092102;28;20232;-80
2021/09/25 09:26:42;;;;;;;13.48;9.88;;;19.70;99.90;;;;;;5090833;28;20253;-77
2021/09/25 09:29:09;;;;;;;12.75;8.88;;;19.70;99.90;;;;;;5092170;28;20217;-78
2021/09/25 09:31:36;;;;;;;11.50;9.07;;;19.70;99.90;;;;;;5091951;28;20176;-77
2021/09/25 09:34:05;;;;;;;9.60;8.70;;;19.70;99.90;;;;;;5091218;28;20227;-77
2021/09/25 09:36:32;;;;;;;10.15;8.75;;;19.80;99.90;;;;;;5092218;28;20219;-77
2021/09/25 09:39:04;;;;;;;12.27;8.77;;;20.00;99.90;;;;;;5091622;28;20520;-87
2021/09/25 09:41:44;;;;;;;8.77;7.80;;;20.00;99.90;;;;;;5092860;28;20177;-83
2021/09/25 09:44:17;;;;;;;8.23;7.43;;;19.90;99.90;;;;;;5093458;28;20185;-83
2021/09/25 09:46:44;;;;;;;9.50;8.50;;;19.90;99.90;;;;;;5094744;28;20634;-78
2021/09/25 09:49:14;;;;;;;9.82;8.05;;;20.10;99.90;;;;;;5093536;28;20224;-78
2021/09/25 09:51:44;;;;;;;8.98;7.30;;;20.00;99.90;;;;;;5095278;28;20166;-76
2021/09/25 09:54:29;;;;;;;9.65;7.30;;;20.10;99.90;;;;;;5095033;28;20170;-77
2021/09/25 09:56:57;;;;;;;8.20;7.40;;;20.30;99.90;;;;;;5091867;28;20790;-77
2021/09/25 09:59:24;;;;;;;12.40;8.85;;;20.40;99.90;;;;;;5092156;28;20251;-78
2021/09/25 10:01:50;;;;;;;10.98;7.88;;;20.10;99.90;;;;;;5096044;28;20174;-83
2021/09/25 10:04:17;;;;;;;10.32;7.70;;;20.00;99.90;;;;;;5094982;28;20534;-82
2021/09/25 10:06:43;;;;;;;10.32;8.23;;;20.10;99.90;;;;;;5094749;28;20560;-82
2021/09/25 10:09:12;;;;;;;8.70;7.65;;;20.30;99.90;;;;;;5094136;28;20575;-83
2021/09/25 10:11:40;;;;;;;9.43;6.75;;;20.50;99.90;;;;;;5093821;28;20194;-82
2021/09/25 10:14:07;;;;;;;9.80;7.18;;;20.60;99.90;;;;;;5095611;28;20240;-77
2021/09/25 10:16:34;;;;;;;8.90;6.85;;;20.60;99.90;;;;;;5095335;28;20247;-77
2021/09/25 10:19:02;;;;;;;7.25;5.90;;;20.70;99.90;;;;;;5095823;28;20177;-82
2021/09/25 10:21:30;;;;;;;5.53;5.03;;;20.70;99.90;;;;;;5094731;28;20162;-76
2021/09/25 10:24:02;;;;;;;5.97;5.18;;;20.60;99.90;;;;;;5095544;28;20197;-74
2021/09/25 10:26:29;;;;;;;6.20;5.60;;;20.70;99.90;;;;;;5095321;28;20166;-79
2021/09/25 10:28:59;;;;;;;6.47;5.88;;;20.90;99.90;;;;;;5096464;28;20182;-90
2021/09/25 10:31:25;;;;;;;6.75;4.90;;;21.00;99.90;;;;;;5097573;28;20248;-74
2021/09/25 10:34:10;;;;;;;6.30;5.70;;;20.70;99.90;;;;;;5096029;28;20186;-94
2021/09/25 10:36:36;;;;;;;5.10;4.43;;;20.90;99.90;;;;;;5090443;28;20184;-81
2021/09/25 10:39:36;;;;;;;5.97;5.18;;;20.90;99.90;;;;;;5096823;28;20529;-88
2021/09/25 10:42:15;;;;;;;4.65;4.13;;;20.90;99.90;;;;;;5085545;28;20234;-89
2021/09/25 10:44:49;;;;;;;8.63;6.10;;;21.00;99.90;;;;;;5095635;28;20173;-80
2021/09/25 10:47:19;;;;;;;5.78;5.15;;;21.20;99.90;;;;;;5093353;28;20173;-80
2021/09/25 10:49:48;;;;;;;5.40;4.25;;;21.20;99.90;;;;;;5093644;28;20197;-80
2021/09/25 10:52:16;;;;;;;8.95;5.20;;;21.30;99.90;;;;;;5095020;28;20181;-81
2021/09/25 10:54:43;;;;;;;7.63;4.60;;;21.20;99.90;;;;;;5094069;28;20249;-80
2021/09/25 10:57:15;;;;;;;7.07;5.05;;;21.10;99.90;;;;;;5094856;28;20626;-81
2021/09/25 11:00:21;;;;;;;6.35;5.75;;;20.90;99.90;;;;;;5095086;28;20235;-81
2021/09/25 11:02:48;;;;;;;6.43;5.53;;;21.00;99.90;;;;;;5093872;28;20185;-81
2021/09/25 11:05:37;;;;;;;8.20;5.65;;;20.90;99.90;;;;;;5094506;28;20206;-82
2021/09/25 11:08:14;;;;;;;10.88;7.63;;;21.10;99.90;;;;;;5095055;28;20202;-80
2021/09/25 11:11:10;;;;;;;7.65;6.40;;;21.20;99.90;;;;;;5094907;28;20231;-79
2021/09/25 11:14:01;;;;;;;5.38;4.97;;;21.40;99.90;;;;;;5087555;28;20205;-79
2021/09/25 11:17:11;;;;;;;5.28;4.85;;;21.50;99.90;;;;;;5096538;28;20162;-91
2021/09/25 11:19:44;;;;;;;6.03;5.53;;;21.80;99.90;;;;;;5075690;28;20666;-79
2021/09/25 11:22:18;;;;;;;4.75;4.35;;;21.70;99.90;;;;;;5095067;28;20173;-79
2021/09/25 11:24:51;;;;;;;4.25;3.88;;;21.40;99.90;;;;;;5093565;28;21024;-79
2021/09/25 11:27:29;;;;;;;8.40;3.85;;;21.60;99.90;;;;;;5091182;28;20162;-81
2021/09/25 11:30:10;;;;;;;4.32;3.92;;;21.50;99.90;;;;;;5086561;28;20211;-85
2021/09/25 11:32:58;;;;;;;7.05;4.38;;;21.40;99.90;;;;;;5093301;28;20518;-81
2021/09/25 11:35:29;;;;;;;10.43;4.80;;;21.50;99.90;;;;;;5091859;28;20185;-80
2021/09/25 11:37:59;;;;;;;4.18;3.78;;;21.50;99.90;;;;;;5092114;28;20189;-82
2021/09/25 11:40:47;;;;;;;5.45;3.95;;;21.70;99.90;;;;;;5092747;28;20645;-82
2021/09/25 11:43:15;;;;;;;3.85;3.47;;;21.70;99.90;;;;;;5094294;28;20166;-88
2021/09/25 11:45:43;;;;;;;5.38;3.72;;;21.60;99.90;;;;;;5095273;28;20159;-88
2021/09/25 11:48:13;;;;;;;4.32;3.13;;;21.60;99.90;;;;;;5093046;28;20189;-82
2021/09/25 11:50:42;;;;;;;6.47;4.30;;;21.60;99.90;;;;;;5093828;28;20207;-82
2021/09/25 11:53:16;;;;;;;4.25;3.85;;;21.70;99.90;;;;;;5093877;28;20158;-82
2021/09/25 11:55:44;;;;;;;4.10;3.70;;;21.70;99.90;;;;;;5082909;28;20178;-83
2021/09/25 11:58:15;;;;;;;4.53;3.60;;;21.70;99.90;;;;;;5085094;28;20751;-82
2021/09/25 12:00:48;;;;;;;4.15;3.75;;;21.80;99.90;;;;;;5072460;28;20174;-91
2021/09/25 12:03:15;;;;;;;6.88;4.63;;;21.90;99.90;;;;;;5092074;28;20201;-81
2021/09/25 12:05:43;;;;;;;4.72;4.15;;;21.80;99.90;;;;;;5107366;28;20216;-82
2021/09/25 12:08:17;;;;;;;4.95;4.03;;;21.80;99.90;;;;;;5103819;28;20186;-81
2021/09/25 12:10:47;;;;;;;4.05;3.45;;;21.70;99.90;;;;;;5105247;28;20201;-82
2021/09/25 12:13:19;;;;;;;5.32;3.33;;;21.80;99.90;;;;;;5105804;28;20314;-81
2021/09/25 12:15:47;;;;;;;4.13;3.70;;;21.90;99.90;;;;;;5110605;28;20166;-83
2021/09/25 12:18:27;;;;;;;4.00;3.60;;;22.10;99.90;;;;;;5112571;28;20186;-81
2021/09/25 12:20:52;;;;;;;3.85;3.28;;;22.30;99.90;;;;;;5113292;28;20150;-90
2021/09/25 12:23:22;;;;;;;4.07;3.67;;;22.40;99.90;;;;;;5113312;28;20174;-89
2021/09/25 12:25:49;;;;;;;4.45;4.05;;;22.30;99.90;;;;;;5113856;28;20242;-88
2021/09/25 12:28:44;;;;;;;4.90;3.33;;;22.40;99.90;;;;;;5105407;28;20599;-84
2021/09/25 12:31:14;;;;;;;3.47;3.17;;;22.50;99.90;;;;;;5097069;28;20210;-84
2021/09/25 12:33:53;;;;;;;5.00;3.63;;;22.60;99.90;;;;;;5098827;28;20162;-87
2021/09/25 12:36:18;;;;;;;3.75;3.45;;;22.60;99.90;;;;;;5094031;28;20185;-84
2021/09/25 12:38:46;;;;;;;3.42;3.13;;;22.70;99.90;;;;;;5092565;28;20240;-82
2021/09/25 12:41:31;;;;;;;5.40;3.75;;;22.60;99.90;;;;;;5093350;28;20239;-84